Time;durP1;ratioP1;P1;durP2;ratioP2;P2;SDS_P1;SDS_P2;PMS_P1;PMS_P2;Temp;Humidity;BMP_temperature;BMP_pressure;BME280_temperature;BME280_humidity;BME280_pressure;Samples;Min_cycle;Max_cycle;Signal;HPM_P1;HPM_P2
2022/05/06 00:01:45;;;;;;;5.13;2.72;;;;;;;10.42;100.00;102595.03;5058217;28;20045;-34
2022/05/06 00:04:15;;;;;;;7.65;2.53;;;;;;;10.38;100.00;102596.66;5058370;28;20048;-29
2022/05/06 00:06:43;;;;;;;14.43;2.83;;;;;;;10.35;100.00;102597.16;5058212;28;20414;-29
2022/05/06 00:09:11;;;;;;;3.38;2.00;;;;;;;10.29;100.00;102587.84;5058193;28;20461;-33
2022/05/06 00:11:39;;;;;;;3.58;2.05;;;;;;;10.28;100.00;102577.78;5058294;28;20048;-32
2022/05/06 00:14:07;;;;;;;6.82;2.60;;;;;;;10.28;100.00;102585.31;5057874;28;20470;-29
2022/05/06 00:16:34;;;;;;;3.67;2.10;;;;;;;10.27;100.00;102580.84;5057711;28;20045;-29
2022/05/06 00:19:02;;;;;;;3.90;2.10;;;;;;;10.28;100.00;102576.94;5058372;28;20136;-31
2022/05/06 00:21:31;;;;;;;3.63;2.13;;;;;;;10.29;100.00;102578.63;5058006;28;20051;-30
2022/05/06 00:23:59;;;;;;;21.70;3.15;;;;;;;10.25;100.00;102571.88;5057659;28;20514;-37
2022/05/06 00:26:32;;;;;;;5.78;2.65;;;;;;;10.22;100.00;102580.75;5058178;28;20099;-36
2022/05/06 00:29:00;;;;;;;4.20;2.78;;;;;;;10.19;100.00;102578.50;5057481;28;20048;-34
2022/05/06 00:31:28;;;;;;;3.05;2.00;;;;;;;10.18;100.00;102579.56;5056870;28;20049;-30
2022/05/06 00:33:56;;;;;;;3.45;2.10;;;;;;;10.19;100.00;102598.84;5058198;28;20061;-29
2022/05/06 00:36:23;;;;;;;9.90;3.10;;;;;;;10.19;100.00;102595.25;5057184;28;20049;-28
2022/05/06 00:38:54;;;;;;;5.47;2.67;;;;;;;10.15;100.00;102592.06;5058181;28;20131;-36
2022/05/06 00:41:22;;;;;;;5.53;2.80;;;;;;;10.09;100.00;102593.06;5058149;28;20060;-32
2022/05/06 00:43:49;;;;;;;3.60;2.30;;;;;;;10.07;100.00;102597.22;5057653;28;20504;-32
2022/05/06 00:46:17;;;;;;;31.48;4.40;;;;;;;10.07;100.00;102602.78;5073567;28;20103;-35
2022/05/06 00:48:47;;;;;;;11.07;3.40;;;;;;;10.06;100.00;102588.00;5057734;28;20128;-28
2022/05/06 00:51:18;;;;;;;7.43;2.53;;;;;;;10.02;100.00;102592.38;5057135;28;20148;-35
2022/05/06 00:53:47;;;;;;;5.25;3.25;;;;;;;9.99;100.00;102585.38;5053092;28;20143;-32
2022/05/06 00:56:18;;;;;;;5.03;2.72;;;;;;;9.97;100.00;102595.13;5070093;28;20140;-30
2022/05/06 00:58:46;;;;;;;10.73;2.72;;;;;;;9.92;100.00;102595.88;5054219;28;20494;-29
2022/05/06 01:01:15;;;;;;;4.95;2.50;;;;;;;9.91;100.00;102591.38;5054762;28;20053;-32
2022/05/06 01:03:43;;;;;;;13.73;3.35;;;;;;;9.88;100.00;102583.53;5054424;28;20465;-39
2022/05/06 01:06:13;;;;;;;3.65;2.50;;;;;;;9.84;100.00;102587.06;5069378;28;20072;-38
2022/05/06 01:08:46;;;;;;;30.38;3.95;;;;;;;9.80;100.00;102591.44;5053574;28;20135;-29
2022/05/06 01:11:15;;;;;;;15.38;3.47;;;;;;;9.77;100.00;102584.44;5052670;28;20444;-27
2022/05/06 01:13:47;;;;;;;4.80;2.17;;;;;;;9.77;100.00;102583.59;5070095;28;20134;-27
2022/05/06 01:16:21;;;;;;;13.70;3.33;;;;;;;9.76;100.00;102596.69;5052974;28;20144;-33
2022/05/06 01:18:55;;;;;;;5.55;2.92;;;;;;;9.73;100.00;102594.41;5052653;28;20482;-30
2022/05/06 01:21:24;;;;;;;4.82;1.90;;;;;;;9.76;100.00;102587.50;5054564;28;20498;-32
2022/05/06 01:23:53;;;;;;;16.48;2.72;;;;;;;9.76;100.00;102588.34;5054110;28;20044;-29
2022/05/06 01:26:21;;;;;;;29.08;3.30;;;;;;;9.73;100.00;102586.03;5053661;28;20135;-30
2022/05/06 01:28:51;;;;;;;41.80;4.05;;;;;;;9.70;100.00;102591.28;5053996;28;20107;-31
2022/05/06 01:31:22;;;;;;;10.48;2.88;;;;;;;9.68;100.00;102580.38;5053772;28;20500;-28
2022/05/06 01:33:55;;;;;;;3.13;1.85;;;;;;;9.66;100.00;102586.19;5053689;28;20581;-31
2022/05/06 01:36:25;;;;;;;2.47;1.58;;;;;;;9.64;100.00;102584.75;5054193;28;20102;-29
2022/05/06 01:39:00;;;;;;;8.70;2.65;;;;;;;9.67;100.00;102593.47;5053837;28;20055;-34
2022/05/06 01:41:35;;;;;;;3.58;2.22;;;;;;;9.69;100.00;102593.22;5053746;28;20051;-35
2022/05/06 01:44:13;;;;;;;4.72;1.80;;;;;;;9.69;100.00;102596.00;5052712;28;20041;-29
2022/05/06 01:46:42;;;;;;;4.50;2.10;;;;;;;9.71;100.00;102606.91;5051815;28;20490;-32
2022/05/06 01:49:20;;;;;;;3.03;1.88;;;;;;;9.70;100.00;102605.22;5052516;28;20049;-31
2022/05/06 01:51:49;;;;;;;2.58;1.60;;;;;;;9.70;100.00;102620.00;5052020;28;20084;-34
2022/05/06 01:54:24;;;;;;;2.58;1.65;;;;;;;9.72;100.00;102612.22;5068477;28;20057;-32
2022/05/06 01:56:52;;;;;;;7.07;1.70;;;;;;;9.73;100.00;102599.97;5052435;28;20048;-29
2022/05/06 01:59:23;;;;;;;2.70;1.48;;;;;;;9.75;100.00;102608.94;5068858;28;20091;-31
2022/05/06 02:01:58;;;;;;;5.50;1.70;;;;;;;9.77;100.00;102603.13;5068368;28;20486;-38
2022/05/06 02:07:16;;;;;;;4.43;1.08;;;;;;;9.75;100.00;102610.88;5051435;28;20041;-32
2022/05/06 02:09:47;;;;;;;7.18;1.92;;;;;;;9.73;100.00;102602.78;5053404;28;20147;-30
2022/05/06 02:12:19;;;;;;;11.85;1.65;;;;;;;9.69;100.00;102598.78;5052140;28;20406;-32
2022/05/06 02:14:58;;;;;;;7.15;1.63;;;;;;;9.65;100.00;102594.81;5051459;28;20059;-34
2022/05/06 02:17:44;;;;;;;2.08;1.20;;;;;;;9.63;100.00;102597.84;5053333;28;20047;-38
2022/05/06 02:20:32;;;;;;;10.90;1.73;;;;;;;9.62;100.00;102598.09;5051709;28;20132;-30
2022/05/06 02:23:09;;;;;;;3.83;1.80;;;;;;;9.59;100.00;102604.19;5051304;28;20059;-34
2022/05/06 02:26:05;;;;;;;22.58;2.40;;;;;;;9.54;100.00;102601.31;5044533;28;20513;-33
2022/05/06 02:28:41;;;;;;;12.43;3.08;;;;;;;9.52;100.00;102603.50;5052202;28;20060;-32
2022/05/06 02:33:56;;;;;;;5.03;2.30;;;;;;;9.49;100.00;102604.81;5052929;28;20053;-34
2022/05/06 02:36:38;;;;;;;5.95;2.58;;;;;;;9.47;100.00;102595.88;5051229;28;20056;-33
2022/05/06 02:39:05;;;;;;;10.60;2.90;;;;;;;9.49;100.00;102606.75;5051482;28;20052;-38
2022/05/06 02:41:36;;;;;;;11.95;3.15;;;;;;;9.48;100.00;102599.50;5051099;28;20495;-32
2022/05/06 02:44:05;;;;;;;16.67;3.53;;;;;;;9.44;100.00;102589.94;5067589;28;20071;-29
2022/05/06 02:46:42;;;;;;;6.55;2.83;;;;;;;9.41;100.00;102584.88;5051769;28;20053;-35
2022/05/06 02:49:09;;;;;;;14.73;2.80;;;;;;;9.41;100.00;102584.88;5051132;28;20509;-30
2022/05/06 02:51:37;;;;;;;6.63;3.05;;;;;;;9.38;100.00;102585.38;5067531;28;20095;-32
2022/05/06 02:54:07;;;;;;;5.50;3.10;;;;;;;9.34;100.00;102579.47;5051080;28;20067;-34
2022/05/06 02:56:39;;;;;;;17.40;3.37;;;;;;;9.36;100.00;102580.06;5067159;28;20076;-31
2022/05/06 02:59:08;;;;;;;25.75;3.78;;;;;;;9.37;100.00;102583.69;5051164;28;20470;-33
2022/05/06 03:01:39;;;;;;;10.63;2.58;;;;;;;9.36;100.00;102580.06;5051308;28;20045;-36
2022/05/06 03:04:12;;;;;;;13.88;3.33;;;;;;;9.33;100.00;102578.63;5050340;28;20422;-33
2022/05/06 03:06:44;;;;;;;3.75;2.08;;;;;;;9.32;100.00;102582.50;5051007;28;20160;-33
2022/05/06 03:09:18;;;;;;;7.68;2.47;;;;;;;9.33;100.00;102586.13;5067641;28;20049;-29
2022/05/06 03:11:48;;;;;;;11.77;3.22;;;;;;;9.33;100.00;102580.56;5050242;28;20049;-34
2022/05/06 03:14:20;;;;;;;10.63;2.40;;;;;;;9.29;100.00;102584.94;5067814;28;20438;-35
2022/05/06 03:17:02;;;;;;;;;;;;;;;9.20;100.00;102584.47;5067838;28;20057;-31
2022/05/06 03:19:30;;;;;;;7.35;2.85;;;;;;;9.16;100.00;102582.44;5051329;28;20424;-35
2022/05/06 03:21:59;;;;;;;3.65;1.90;;;;;;;9.20;100.00;102586.41;5052434;28;20401;-30
2022/05/06 03:24:26;;;;;;;5.07;2.53;;;;;;;9.23;100.00;102589.53;5050544;28;20048;-28
2022/05/06 03:26:56;;;;;;;5.72;2.60;;;;;;;9.25;100.00;102583.72;5066803;28;20095;-28
2022/05/06 03:29:25;;;;;;;5.13;2.65;;;;;;;9.27;100.00;102587.13;5051974;28;20041;-34
2022/05/06 03:31:53;;;;;;;20.80;3.53;;;;;;;9.26;100.00;102586.25;5050775;28;20085;-29
2022/05/06 03:34:22;;;;;;;13.60;3.22;;;;;;;9.25;100.00;102587.34;5050994;28;20049;-28
2022/05/06 03:36:50;;;;;;;7.50;3.03;;;;;;;9.24;100.00;102588.44;5050424;28;20051;-28
2022/05/06 03:39:17;;;;;;;6.22;3.05;;;;;;;9.25;100.00;102590.16;5049684;28;20122;-33
2022/05/06 03:42:00;;;;;;;6.63;3.10;;;;;;;9.26;100.00;102585.41;5067309;28;20433;-32
2022/05/06 03:44:30;;;;;;;9.38;2.80;;;;;;;9.27;100.00;102584.31;5049490;28;20052;-27
2022/05/06 03:46:58;;;;;;;5.78;2.75;;;;;;;9.28;100.00;102589.66;5049085;28;20059;-29
2022/05/06 03:49:31;;;;;;;7.20;2.90;;;;;;;9.26;100.00;102589.06;5065067;28;20098;-30
2022/05/06 03:52:00;;;;;;;4.38;1.98;;;;;;;9.26;100.00;102594.63;5065437;28;20084;-29
2022/05/06 03:54:29;;;;;;;14.90;3.42;;;;;;;9.25;100.00;102589.28;5049239;28;20152;-34
2022/05/06 03:56:56;;;;;;;10.77;4.10;;;;;;;9.23;100.00;102595.13;5050796;28;20053;-33
2022/05/06 03:59:26;;;;;;;11.07;4.18;;;;;;;9.21;100.00;102594.50;5065958;28;20099;-30
2022/05/06 04:02:00;;;;;;;15.18;3.53;;;;;;;9.20;100.00;102590.03;5048808;28;20506;-32
2022/05/06 04:04:32;;;;;;;7.47;2.70;;;;;;;9.19;100.00;102591.13;5050625;28;20393;-32
2022/05/06 04:07:04;;;;;;;25.42;3.30;;;;;;;9.16;100.00;102590.81;5048333;28;20059;-34
2022/05/06 04:09:39;;;;;;;14.15;3.00;;;;;;;9.14;100.00;102588.25;5049594;28;20057;-33
2022/05/06 04:12:09;;;;;;;4.97;2.40;;;;;;;9.15;100.00;102589.97;5050718;28;20107;-33
2022/05/06 04:14:43;;;;;;;5.50;2.03;;;;;;;9.13;100.00;102592.13;5050325;28;20060;-34
2022/05/06 04:17:12;;;;;;;10.30;2.95;;;;;;;9.14;100.00;102591.03;5066226;28;20049;-30
2022/05/06 04:23:28;;;;;;;17.95;2.90;;;;;;;9.14;100.00;102595.78;5049007;28;20041;-32
2022/05/06 04:25:17;;;;;;;7.25;3.45;;;;;;;9.08;100.00;102597.59;5049541;28;20055;-40
2022/05/06 04:27:47;;;;;;;24.73;3.60;;;;;;;9.13;100.00;102605.22;5050884;28;20057;-30
2022/05/06 04:30:16;;;;;;;18.00;3.15;;;;;;;9.13;100.00;102606.06;5052722;28;20363;-25
2022/05/06 04:32:56;;;;;;;16.30;2.80;;;;;;;9.09;100.00;102604.84;5052956;28;20752;-31
2022/05/06 04:35:24;;;;;;;4.35;1.80;;;;;;;9.08;100.00;102600.38;5069283;28;20057;-29
2022/05/06 04:37:53;;;;;;;13.57;2.17;;;;;;;9.06;100.00;102601.72;5069712;28;20049;-37
2022/05/06 04:40:21;;;;;;;16.95;2.47;;;;;;;9.04;100.00;102606.69;5052631;28;20485;-32
2022/05/06 04:42:49;;;;;;;14.75;1.90;;;;;;;9.03;100.00;102605.84;5068903;28;20067;-31
2022/05/06 04:45:21;;;;;;;6.38;2.17;;;;;;;9.03;100.00;102600.25;5053181;28;20095;-31
2022/05/06 04:48:01;;;;;;;4.55;2.05;;;;;;;9.03;100.00;102605.00;5069110;28;20056;-30
2022/05/06 04:50:31;;;;;;;6.28;2.63;;;;;;;9.07;100.00;102604.25;5052287;28;20048;-35
2022/05/06 04:52:58;;;;;;;14.45;2.40;;;;;;;9.09;100.00;102609.59;5053980;28;20055;-34
2022/05/06 04:55:26;;;;;;;9.75;2.08;;;;;;;9.08;100.00;102619.88;5054050;28;20068;-33
2022/05/06 04:57:54;;;;;;;11.75;2.00;;;;;;;9.05;100.00;102609.22;5051926;28;20049;-35
2022/05/06 05:00:24;;;;;;;3.90;1.30;;;;;;;9.06;100.00;102618.44;5054002;28;20083;-31
2022/05/06 05:02:53;;;;;;;6.90;1.52;;;;;;;9.03;100.00;102616.97;5052465;28;20053;-35
2022/05/06 05:05:24;;;;;;;5.40;1.55;;;;;;;9.06;100.00;102627.63;5052046;28;20049;-32
2022/05/06 05:07:53;;;;;;;3.63;2.08;;;;;;;9.12;100.00;102628.59;5052561;28;20137;-32
2022/05/06 05:10:21;;;;;;;3.00;1.75;;;;;;;9.18;100.00;102633.19;5068635;28;20577;-31
2022/05/06 05:12:50;;;;;;;4.72;1.70;;;;;;;9.22;100.00;102634.34;5052094;28;20089;-30
2022/05/06 05:15:23;;;;;;;5.72;2.00;;;;;;;9.26;100.00;102639.19;5051759;28;20163;-30
2022/05/06 05:17:51;;;;;;;7.25;2.20;;;;;;;9.27;100.00;102629.75;5051501;28;20060;-33
2022/05/06 05:20:20;;;;;;;4.93;1.70;;;;;;;9.30;100.00;102636.75;5053133;28;20505;-32
2022/05/06 05:22:47;;;;;;;5.57;1.85;;;;;;;9.32;100.00;102638.22;5068792;28;20049;-30
2022/05/06 05:25:17;;;;;;;2.42;1.40;;;;;;;9.34;100.00;102643.53;5051580;28;20493;-28
2022/05/06 05:27:46;;;;;;;17.45;1.63;;;;;;;9.33;100.00;102639.91;5052131;28;20082;-31
2022/05/06 05:30:28;;;;;;;2.95;1.40;;;;;;;9.32;100.00;102629.84;5068506;28;20072;-32
2022/05/06 05:32:58;;;;;;;3.63;1.40;;;;;;;9.31;100.00;102636.53;5051532;28;20502;-29
2022/05/06 05:35:29;;;;;;;2.10;1.13;;;;;;;9.31;100.00;102642.09;5067158;28;20303;-27
2022/05/06 05:38:01;;;;;;;6.60;1.52;;;;;;;9.39;100.00;102640.03;5050422;28;20415;-34
2022/05/06 05:40:30;;;;;;;3.55;1.55;;;;;;;9.45;100.00;102641.78;5066829;28;20230;-35
2022/05/06 05:42:59;;;;;;;5.97;1.67;;;;;;;9.50;100.00;102639.13;5067380;28;20520;-29
2022/05/06 05:48:21;;;;;;;3.33;1.45;;;;;;;9.59;100.00;102640.41;5051937;28;20872;-27
2022/05/06 05:51:08;;;;;;;2.30;1.30;;;;;;;9.65;100.00;102647.75;5066998;28;20063;-31
2022/05/06 05:53:43;;;;;;;2.92;1.23;;;;;;;9.77;100.00;102644.94;5049985;28;20049;-34
2022/05/06 05:56:13;;;;;;;8.80;1.73;;;;;;;9.85;100.00;102638.94;5050400;28;20114;-36
2022/05/06 05:58:40;;;;;;;2.13;1.25;;;;;;;9.83;100.00;102650.34;5063293;28;20080;-33
2022/05/06 06:01:14;;;;;;;2.42;1.42;;;;;;;9.74;100.00;102651.84;5047407;28;20060;-35
2022/05/06 06:03:41;;;;;;;2.97;1.30;;;;;;;9.78;100.00;102646.63;5051330;28;20049;-30
2022/05/06 06:06:11;;;;;;;4.55;1.83;;;;;;;9.84;100.00;102643.66;5049527;28;20053;-35
2022/05/06 06:08:40;;;;;;;2.53;1.50;;;;;;;9.96;100.00;102640.84;5050831;28;20048;-29
2022/05/06 06:11:09;;;;;;;2.13;1.30;;;;;;;10.01;100.00;102641.75;5066354;28;20045;-26
2022/05/06 06:13:43;;;;;;;2.10;1.15;;;;;;;10.06;100.00;102637.34;5046833;28;20049;-37
2022/05/06 06:16:19;;;;;;;2.72;1.58;;;;;;;10.13;100.00;102632.47;5066524;28;20071;-31
2022/05/06 06:18:47;;;;;;;2.97;1.30;;;;;;;10.21;100.00;102638.50;5065262;28;20064;-34
2022/05/06 06:21:18;;;;;;;2.63;1.23;;;;;;;10.25;100.00;102631.31;5066011;28;20052;-35
2022/05/06 06:23:47;;;;;;;3.20;1.27;;;;;;;10.32;100.00;102632.00;5065927;28;20053;-28
2022/05/06 06:26:15;;;;;;;3.00;1.77;;;;;;;10.30;100.00;102634.19;5051034;28;20055;-29
2022/05/06 06:28:43;;;;;;;3.67;1.48;;;;;;;10.36;100.00;102635.13;5048854;28;20059;-32
2022/05/06 06:31:13;;;;;;;2.58;1.38;;;;;;;10.42;100.00;102622.94;5049636;28;20371;-33
2022/05/06 06:33:44;;;;;;;3.53;1.80;;;;;;;10.48;100.00;102633.09;5049033;28;20071;-29
2022/05/06 06:36:17;;;;;;;4.43;2.17;;;;;;;10.54;100.00;102632.06;5049216;28;20067;-34
2022/05/06 06:38:47;;;;;;;3.30;1.60;;;;;;;10.58;100.00;102622.09;5049213;28;20053;-33
2022/05/06 06:41:15;;;;;;;5.05;2.55;;;;;;;10.72;100.00;102627.28;5049151;28;20045;-29
2022/05/06 06:43:43;;;;;;;3.53;1.75;;;;;;;10.79;100.00;102627.97;5049863;28;20351;-35
2022/05/06 06:46:21;;;;;;;2.65;1.60;;;;;;;10.86;100.00;102632.25;5049096;28;20049;-35
2022/05/06 06:49:03;;;;;;;2.20;1.48;;;;;;;11.02;100.00;102630.50;5048898;28;20114;-30
2022/05/06 06:51:51;;;;;;;2.22;1.20;;;;;;;11.24;100.00;102631.34;5049881;28;20049;-29
2022/05/06 06:54:18;;;;;;;1.73;1.00;;;;;;;11.43;100.00;102631.84;5050321;28;20049;-33
2022/05/06 06:56:46;;;;;;;2.53;1.33;;;;;;;11.58;100.00;102628.41;5050450;28;20044;-35
2022/05/06 06:59:14;;;;;;;2.40;1.30;;;;;;;11.84;100.00;102627.56;5049911;28;20037;-34
2022/05/06 07:01:41;;;;;;;1.92;1.05;;;;;;;12.12;100.00;102628.41;5049709;28;20040;-33
2022/05/06 07:04:10;;;;;;;1.80;1.10;;;;;;;12.50;100.00;102624.50;5049661;28;20465;-30
2022/05/06 07:12:10;;;;;;;2.05;1.30;;;;;;;13.99;100.00;102626.53;5048268;28;20069;-32
2022/05/06 07:14:40;;;;;;;2.00;1.40;;;;;;;14.49;100.00;102619.28;5048065;28;20055;-30
2022/05/06 07:17:08;;;;;;;2.05;1.10;;;;;;;15.11;100.00;102629.25;5049534;28;20061;-26
2022/05/06 07:19:37;;;;;;;2.63;1.13;;;;;;;15.55;100.00;102622.88;5050279;28;20057;-35
2022/05/06 07:22:05;;;;;;;2.85;1.40;;;;;;;16.10;100.00;102619.69;5049532;28;20503;-30
2022/05/06 07:24:38;;;;;;;2.35;1.80;;;;;;;16.64;100.00;102620.66;5048089;28;20079;-37
2022/05/06 07:27:07;;;;;;;2.55;1.88;;;;;;;17.26;100.00;102621.63;5049608;28;20045;-34
2022/05/06 07:29:35;;;;;;;2.63;1.67;;;;;;;17.72;100.00;102619.06;5049494;28;20061;-36
2022/05/06 07:32:03;;;;;;;2.10;1.50;;;;;;;18.04;100.00;102615.44;5049184;28;20390;-34
2022/05/06 07:34:31;;;;;;;1.83;1.23;;;;;;;18.40;99.57;102615.69;5049766;28;20041;-36
2022/05/06 07:37:01;;;;;;;1.70;1.08;;;;;;;18.82;94.96;102614.66;5050352;28;20045;-32
2022/05/06 07:39:28;;;;;;;2.05;1.35;;;;;;;19.31;91.43;102611.13;5050478;28;20056;-32
2022/05/06 07:41:56;;;;;;;2.30;1.17;;;;;;;19.82;88.10;102615.66;5051318;28;20080;-34
2022/05/06 07:44:24;;;;;;;2.10;1.10;;;;;;;20.15;84.60;102614.28;5050807;28;20045;-39
2022/05/06 07:46:52;;;;;;;1.90;1.17;;;;;;;20.50;82.54;102608.88;5050401;28;20049;-34
2022/05/06 07:49:20;;;;;;;2.05;1.10;;;;;;;20.81;77.47;102606.03;5050714;28;20048;-34
2022/05/06 07:51:48;;;;;;;2.03;1.00;;;;;;;20.96;75.80;102614.13;5065649;28;20055;-34
2022/05/06 07:54:16;;;;;;;1.63;0.90;;;;;;;20.96;72.67;102606.47;5050840;28;20057;-35
2022/05/06 07:56:44;;;;;;;1.60;0.90;;;;;;;21.02;72.82;102603.44;5050365;28;20062;-36
2022/05/06 07:59:12;;;;;;;2.58;0.90;;;;;;;20.85;71.01;102607.91;5049579;28;20049;-30
2022/05/06 08:04:36;;;;;;;1.35;0.82;;;;;;;20.49;69.26;102598.69;5054628;28;20506;-29
2022/05/06 08:07:06;;;;;;;2.35;0.90;;;;;;;20.38;68.07;102600.97;5053821;28;20502;-30
2022/05/06 08:09:36;;;;;;;1.50;0.82;;;;;;;20.48;68.96;102599.84;5054690;28;20051;-33
2022/05/06 08:12:04;;;;;;;1.50;0.77;;;;;;;20.53;67.68;102596.88;5054119;28;20089;-30
2022/05/06 08:14:32;;;;;;;2.00;1.00;;;;;;;20.82;66.58;102597.19;5053940;28;20056;-29
2022/05/06 08:17:01;;;;;;;1.73;0.80;;;;;;;21.18;65.53;102596.19;5053157;28;20509;-33
2022/05/06 08:19:28;;;;;;;1.45;0.73;;;;;;;21.38;62.99;102587.09;5054494;28;20056;-31
2022/05/06 08:21:56;;;;;;;1.50;0.80;;;;;;;21.36;62.32;102594.25;5053948;28;20649;-30
2022/05/06 08:24:24;;;;;;;2.50;1.08;;;;;;;21.56;61.67;102591.63;5054487;28;20333;-34
2022/05/06 08:26:53;;;;;;;2.47;0.80;;;;;;;21.84;61.26;102594.97;5054055;28;20410;-33
2022/05/06 08:29:22;;;;;;;1.95;1.10;;;;;;;22.07;57.65;102594.84;5053669;28;20172;-30
2022/05/06 08:31:51;;;;;;;1.40;0.75;;;;;;;22.08;57.44;102603.03;5053470;28;20589;-36
2022/05/06 08:34:19;;;;;;;2.53;0.90;;;;;;;22.24;57.07;102595.66;5053711;28;20290;-32
2022/05/06 08:36:47;;;;;;;1.58;0.90;;;;;;;22.54;53.79;102598.63;5054449;28;20612;-29
2022/05/06 08:39:15;;;;;;;2.15;0.90;;;;;;;22.54;54.44;102592.94;5054425;28;20059;-33
2022/05/06 08:41:43;;;;;;;2.72;0.88;;;;;;;22.73;53.74;102592.53;5053594;28;20053;-37
2022/05/06 08:52:33;;;;;;;1.92;0.70;;;;;;;22.25;53.29;102585.13;5054043;28;20045;-40
2022/05/06 08:55:02;;;;;;;1.63;0.70;;;;;;;22.36;53.98;102591.31;5054276;28;20053;-32
2022/05/06 08:57:31;;;;;;;1.50;0.77;;;;;;;22.51;53.48;102587.91;5053224;28;20052;-30
2022/05/06 09:00:00;;;;;;;1.83;0.82;;;;;;;22.63;53.08;102579.50;5053691;28;20049;-30
2022/05/06 09:02:29;;;;;;;1.27;0.70;;;;;;;22.50;53.19;102583.41;5053243;28;20172;-29
2022/05/06 09:04:56;;;;;;;1.40;0.80;;;;;;;22.42;52.90;102589.94;5053493;28;20056;-32
2022/05/06 09:07:25;;;;;;;4.00;0.80;;;;;;;22.33;52.69;102587.13;5053664;28;20044;-35
2022/05/06 09:10:13;;;;;;;2.33;0.90;;;;;;;22.49;47.13;102581.72;5053171;28;20045;-32
2022/05/06 09:12:44;;;;;;;3.05;0.80;;;;;;;22.57;50.66;102590.25;5052865;28;20123;-34
2022/05/06 09:18:00;;;;;;;1.95;0.68;;;;;;;22.74;51.91;102577.13;5052913;28;20059;-31
2022/05/06 09:20:29;;;;;;;1.23;0.60;;;;;;;22.63;52.05;102573.81;5053497;28;20186;-32
2022/05/06 09:22:57;;;;;;;1.50;0.70;;;;;;;22.56;51.00;102573.50;5053089;28;20045;-30
2022/05/06 09:25:35;;;;;;;1.58;0.90;;;;;;;22.60;50.70;102574.47;5052566;28;20232;-31
2022/05/06 09:28:03;;;;;;;2.33;1.00;;;;;;;22.50;52.00;102569.16;5052661;28;20052;-31
2022/05/06 09:30:33;;;;;;;2.63;1.10;;;;;;;22.37;52.33;102576.75;5052940;28;20049;-37
2022/05/06 09:33:01;;;;;;;3.30;1.30;;;;;;;22.28;52.83;102579.59;5053139;28;20056;-35
2022/05/06 09:35:31;;;;;;;2.08;1.40;;;;;;;22.38;53.04;102578.41;5051486;28;20049;-35
2022/05/06 09:38:03;;;;;;;4.10;2.72;;;;;;;22.49;52.49;102581.72;5052697;28;20045;-32
2022/05/06 09:40:32;;;;;;;3.03;2.22;;;;;;;22.49;52.47;102581.72;5052620;28;20183;-30
2022/05/06 09:43:00;;;;;;;5.18;3.28;;;;;;;22.31;52.99;102581.78;5052244;28;20051;-39
2022/05/06 09:45:30;;;;;;;5.10;4.22;;;;;;;21.99;53.09;102582.25;5052577;28;20049;-32
2022/05/06 09:48:01;;;;;;;5.25;3.83;;;;;;;21.47;54.86;102576.56;5053024;28;20052;-30
2022/05/06 09:50:33;;;;;;;7.07;4.25;;;;;;;21.42;55.24;102579.56;5052656;28;20083;-32
2022/05/06 09:53:05;;;;;;;4.65;3.42;;;;;;;21.58;55.64;102577.09;5050621;28;20049;-31
2022/05/06 09:55:32;;;;;;;5.00;3.22;;;;;;;21.61;55.15;102573.56;5050643;28;20049;-35
2022/05/06 09:58:00;;;;;;;5.60;3.38;;;;;;;21.74;54.41;102564.06;5051773;28;20045;-30
2022/05/06 10:00:28;;;;;;;4.10;3.35;;;;;;;21.86;54.58;102574.75;5051262;28;20431;-32
2022/05/06 10:02:57;;;;;;;6.28;3.53;;;;;;;22.05;53.92;102580.97;5051936;28;20041;-31
2022/05/06 10:05:28;;;;;;;6.40;4.10;;;;;;;22.12;53.54;102569.91;5052414;28;20052;-36
2022/05/06 10:08:00;;;;;;;4.43;3.67;;;;;;;22.22;54.03;102580.94;5052929;28;20060;-31
2022/05/06 10:10:29;;;;;;;5.53;3.92;;;;;;;22.37;53.45;102581.59;5052609;28;20041;-39
2022/05/06 10:12:59;;;;;;;4.47;3.58;;;;;;;22.34;53.09;102580.25;5051664;28;20410;-35
2022/05/06 10:15:29;;;;;;;4.20;3.50;;;;;;;22.06;53.38;102571.25;5052326;28;20051;-36
2022/05/06 10:17:58;;;;;;;4.55;3.78;;;;;;;21.91;53.72;102580.28;5052407;28;20487;-30
2022/05/06 10:20:50;;;;;;;5.50;3.65;;;;;;;21.87;53.39;102576.41;5051802;28;20045;-36
2022/05/06 10:23:19;;;;;;;5.15;3.35;;;;;;;21.96;55.06;102571.59;5052495;28;20060;-31
2022/05/06 10:25:57;;;;;;;6.45;4.57;;;;;;;22.02;52.05;102564.56;5051670;28;20136;-37
2022/05/06 10:34:29;;;;;;;6.22;4.55;;;;;;;22.08;55.11;102574.59;5052292;28;20049;-34
2022/05/06 10:37:00;;;;;;;7.78;5.45;;;;;;;22.13;53.85;102565.91;5052614;28;20502;-34
2022/05/06 10:39:29;;;;;;;;;;;;;;;22.11;51.93;102573.94;5053060;28;20052;-33
2022/05/06 10:42:04;;;;;;;5.10;3.80;;;;;;;21.99;55.32;102570.88;5051994;28;19932;-30
2022/05/06 10:44:38;;;;;;;7.43;5.13;;;;;;;22.11;54.09;102584.47;5052659;28;20521;-34
2022/05/06 10:47:38;;;;;;;5.45;4.65;;;;;;;21.94;54.91;102576.75;5052338;28;20088;-35
2022/05/06 10:50:14;;;;;;;7.20;5.30;;;;;;;21.96;54.71;102582.97;5052251;28;20049;-30
2022/05/06 10:52:47;;;;;;;6.72;4.57;;;;;;;21.90;55.39;102570.06;5051867;28;20056;-33
2022/05/06 10:55:17;;;;;;;8.10;5.68;;;;;;;21.62;55.08;102575.22;5050930;28;20494;-31
2022/05/06 10:57:57;;;;;;;7.45;5.03;;;;;;;21.19;56.32;102575.13;5051313;28;20443;-31
2022/05/06 11:00:27;;;;;;;6.95;5.40;;;;;;;21.12;58.25;102569.09;5050887;28;20053;-37
2022/05/06 11:02:58;;;;;;;7.25;5.03;;;;;;;21.43;57.65;102569.03;5050814;28;20045;-40
2022/05/06 11:05:29;;;;;;;8.05;5.55;;;;;;;21.56;56.16;102568.91;5051089;28;20048;-31
2022/05/06 11:08:05;;;;;;;7.90;5.73;;;;;;;21.50;55.69;102575.91;5050387;28;20068;-30
2022/05/06 11:10:34;;;;;;;6.40;5.28;;;;;;;21.40;56.21;102564.84;5050637;28;20152;-31
2022/05/06 11:13:25;;;;;;;6.72;5.40;;;;;;;21.50;56.74;102566.53;5050788;28;20102;-30
2022/05/06 11:15:55;;;;;;;7.30;5.43;;;;;;;21.62;57.10;102559.03;5050572;28;20521;-33
2022/05/06 11:18:23;;;;;;;9.67;6.93;;;;;;;21.62;55.84;102561.03;5051016;28;20078;-36
2022/05/06 11:20:52;;;;;;;9.25;6.50;;;;;;;21.69;55.53;102563.38;5050331;28;20122;-33
2022/05/06 11:23:28;;;;;;;7.47;6.13;;;;;;;21.53;56.78;102557.34;5050202;28;20511;-33
2022/05/06 11:25:57;;;;;;;7.07;5.50;;;;;;;21.45;56.61;102555.34;5051100;28;20506;-30
2022/05/06 11:28:24;;;;;;;9.32;6.78;;;;;;;21.42;56.52;102554.00;5051069;28;20052;-31
2022/05/06 11:30:53;;;;;;;8.55;6.30;;;;;;;21.42;57.25;102551.16;5048361;28;20249;-29
2022/05/06 11:33:24;;;;;;;7.75;6.30;;;;;;;21.60;57.11;102552.84;5050658;28;20052;-29
2022/05/06 11:36:01;;;;;;;7.88;6.45;;;;;;;21.64;55.87;102550.16;5050427;28;20403;-30
2022/05/06 11:38:32;;;;;;;7.50;5.43;;;;;;;21.66;57.04;102545.00;5050198;28;20053;-34
2022/05/06 11:41:07;;;;;;;8.37;6.20;;;;;;;21.82;56.50;102548.16;5051009;28;20483;-31
2022/05/06 11:43:35;;;;;;;8.02;5.85;;;;;;;21.74;56.22;102537.66;5050211;28;20053;-30
2022/05/06 11:48:49;;;;;;;9.93;7.82;;;;;;;21.80;55.37;102531.44;5050580;28;20077;-31
2022/05/06 11:51:20;;;;;;;7.65;5.57;;;;;;;21.79;55.61;102537.47;5049912;28;20045;-33
2022/05/06 11:53:50;;;;;;;8.75;6.80;;;;;;;21.53;55.32;102529.78;5050388;28;20080;-34
2022/05/06 11:56:22;;;;;;;9.27;7.47;;;;;;;21.00;56.68;102532.81;5051452;28;20503;-30
2022/05/06 11:58:50;;;;;;;8.00;6.53;;;;;;;20.63;58.34;102546.38;5050659;28;20049;-33
2022/05/06 12:01:26;;;;;;;9.90;7.72;;;;;;;20.61;58.66;102540.19;5049802;28;20053;-38
2022/05/06 12:03:54;;;;;;;9.27;7.13;;;;;;;20.58;59.08;102531.53;5050119;28;20068;-40
2022/05/06 12:06:32;;;;;;;8.65;6.72;;;;;;;20.80;59.18;102534.25;5049399;28;20049;-28
2022/05/06 12:09:13;;;;;;;9.40;6.88;;;;;;;20.98;58.34;102535.97;5051173;28;20487;-38
2022/05/06 12:11:42;;;;;;;8.00;5.95;;;;;;;20.85;59.08;102527.59;5050213;28;20486;-36
2022/05/06 12:14:12;;;;;;;8.93;6.93;;;;;;;20.87;58.76;102539.47;5050341;28;20053;-31
2022/05/06 12:16:54;;;;;;;10.13;7.28;;;;;;;20.74;58.61;102524.25;5050251;28;20402;-31
2022/05/06 12:19:33;;;;;;;9.60;7.40;;;;;;;20.79;59.00;102529.75;5050439;28;20144;-32